sensor_id;sensor_type;location;lat;lon;timestamp;pressure;altitude;pressure_sealevel;temperature;humidity
16793;BME280;8513;42.662;23.350;2023-04-08T00:01:52;94982.06;;;7.12;47.83
16793;BME280;8513;42.662;23.350;2023-04-08T00:04:18;94976.31;;;7.18;47.93
16793;BME280;8513;42.662;23.350;2023-04-08T00:06:43;94983.28;;;7.07;48.01
16793;BME280;8513;42.662;23.350;2023-04-08T00:09:08;94982.34;;;7.09;47.98
16793;BME280;8513;42.662;23.350;2023-04-08T00:11:34;94973.22;;;7.03;48.96
16793;BME280;8513;42.662;23.350;2023-04-08T00:14:02;94988.69;;;6.85;49.77
16793;BME280;8513;42.662;23.350;2023-04-08T00:16:28;94981.31;;;7.00;49.24
16793;BME280;8513;42.662;23.350;2023-04-08T00:18:53;94979.72;;;7.09;48.92
16793;BME280;8513;42.662;23.350;2023-04-08T00:21:19;94979.56;;;7.10;49.34
16793;BME280;8513;42.662;23.350;2023-04-08T00:23:45;94979.47;;;7.12;48.79
16793;BME280;8513;42.662;23.350;2023-04-08T00:26:11;94978.88;;;7.08;49.19
16793;BME280;8513;42.662;23.350;2023-04-08T00:28:37;94983.97;;;7.10;49.23
16793;BME280;8513;42.662;23.350;2023-04-08T00:31:02;94975.69;;;7.04;49.70
16793;BME280;8513;42.662;23.350;2023-04-08T00:33:28;94981.19;;;7.01;49.49
16793;BME280;8513;42.662;23.350;2023-04-08T00:35:53;94978.75;;;7.10;49.45
16793;BME280;8513;42.662;23.350;2023-04-08T00:38:19;94983.53;;;7.04;49.35
16793;BME280;8513;42.662;23.350;2023-04-08T00:40:45;94982.78;;;7.14;49.02
16793;BME280;8513;42.662;23.350;2023-04-08T00:43:10;94979.56;;;7.10;49.56
16793;BME280;8513;42.662;23.350;2023-04-08T00:45:36;94986.47;;;7.11;49.69
16793;BME280;8513;42.662;23.350;2023-04-08T00:48:03;94994.56;;;7.08;49.43
16793;BME280;8513;42.662;23.350;2023-04-08T00:50:29;94995.41;;;7.09;49.76
16793;BME280;8513;42.662;23.350;2023-04-08T00:52:55;94985.06;;;7.07;49.75
16793;BME280;8513;42.662;23.350;2023-04-08T00:55:20;94985.06;;;7.07;49.45
16793;BME280;8513;42.662;23.350;2023-04-08T00:57:46;94990.41;;;6.96;49.57
16793;BME280;8513;42.662;23.350;2023-04-08T01:00:13;94989.16;;;7.00;50.11
16793;BME280;8513;42.662;23.350;2023-04-08T01:05:19;94988.34;;;6.99;49.97
16793;BME280;8513;42.662;23.350;2023-04-08T01:07:49;94994.28;;;7.01;49.71
16793;BME280;8513;42.662;23.350;2023-04-08T01:10:20;95002.38;;;6.98;49.26
16793;BME280;8513;42.662;23.350;2023-04-08T01:12:53;95001.88;;;6.83;49.58
16793;BME280;8513;42.662;23.350;2023-04-08T01:15:19;95000.53;;;6.89;49.81
16793;BME280;8513;42.662;23.350;2023-04-08T01:17:47;95010.97;;;6.89;50.08
16793;BME280;8513;42.662;23.350;2023-04-08T01:20:14;94999.25;;;6.83;49.96
16793;BME280;8513;42.662;23.350;2023-04-08T01:25:35;95006.84;;;6.87;49.72
16793;BME280;8513;42.662;23.350;2023-04-08T01:28:12;94998.75;;;6.90;49.83
16793;BME280;8513;42.662;23.350;2023-04-08T01:30:40;95000.78;;;6.86;49.57
16793;BME280;8513;42.662;23.350;2023-04-08T01:33:09;95001.50;;;6.88;49.91
16793;BME280;8513;42.662;23.350;2023-04-08T01:35:36;94990.34;;;6.86;49.48
16793;BME280;8513;42.662;23.350;2023-04-08T01:38:04;94997.78;;;6.91;49.32
16793;BME280;8513;42.662;23.350;2023-04-08T01:40:32;94996.25;;;6.88;48.92
16793;BME280;8513;42.662;23.350;2023-04-08T01:42:59;94994.84;;;6.84;48.85
16793;BME280;8513;42.662;23.350;2023-04-08T01:45:27;94996.78;;;6.82;49.05
16793;BME280;8513;42.662;23.350;2023-04-08T01:47:54;94997.03;;;6.79;49.14
16793;BME280;8513;42.662;23.350;2023-04-08T01:50:21;95008.88;;;6.83;49.41
16793;BME280;8513;42.662;23.350;2023-04-08T01:52:48;94993.47;;;6.80;49.61
16793;BME280;8513;42.662;23.350;2023-04-08T01:55:14;94999.63;;;6.79;49.03
16793;BME280;8513;42.662;23.350;2023-04-08T01:57:43;95006.72;;;6.88;49.01
16793;BME280;8513;42.662;23.350;2023-04-08T02:00:11;95006.41;;;6.81;49.40
16793;BME280;8513;42.662;23.350;2023-04-08T02:02:37;95004.75;;;6.80;49.43
16793;BME280;8513;42.662;23.350;2023-04-08T02:05:06;95011.50;;;6.83;49.06
16793;BME280;8513;42.662;23.350;2023-04-08T02:07:31;95018.63;;;6.81;49.62
16793;BME280;8513;42.662;23.350;2023-04-08T02:09:57;95014.13;;;6.83;49.71
16793;BME280;8513;42.662;23.350;2023-04-08T02:12:23;95022.41;;;6.88;49.42
16793;BME280;8513;42.662;23.350;2023-04-08T02:14:49;95018.00;;;6.89;49.52
16793;BME280;8513;42.662;23.350;2023-04-08T02:20:36;95021.25;;;6.81;49.84
16793;BME280;8513;42.662;23.350;2023-04-08T02:25:33;95022.94;;;6.82;50.02
16793;BME280;8513;42.662;23.350;2023-04-08T02:28:02;95019.09;;;6.86;49.33
16793;BME280;8513;42.662;23.350;2023-04-08T02:30:30;95019.78;;;6.88;49.55
16793;BME280;8513;42.662;23.350;2023-04-08T02:32:57;95015.03;;;6.72;49.99
16793;BME280;8513;42.662;23.350;2023-04-08T02:35:23;95018.25;;;6.85;49.43
16793;BME280;8513;42.662;23.350;2023-04-08T02:37:49;95014.69;;;6.87;49.63
16793;BME280;8513;42.662;23.350;2023-04-08T02:40:27;95025.84;;;6.89;49.15
16793;BME280;8513;42.662;23.350;2023-04-08T02:42:53;95017.88;;;6.90;48.51
16793;BME280;8513;42.662;23.350;2023-04-08T02:45:20;95010.97;;;6.89;48.30
16793;BME280;8513;42.662;23.350;2023-04-08T02:47:46;95015.72;;;6.95;48.61
16793;BME280;8513;42.662;23.350;2023-04-08T02:50:11;95013.78;;;6.97;48.49
16793;BME280;8513;42.662;23.350;2023-04-08T02:52:37;95017.72;;;6.92;48.67
16793;BME280;8513;42.662;23.350;2023-04-08T02:55:02;95019.34;;;6.83;48.71
16793;BME280;8513;42.662;23.350;2023-04-08T02:57:30;95016.28;;;6.78;48.86
16793;BME280;8513;42.662;23.350;2023-04-08T02:59:56;95020.53;;;6.79;48.72
16793;BME280;8513;42.662;23.350;2023-04-08T03:02:21;95020.50;;;6.90;48.69
16793;BME280;8513;42.662;23.350;2023-04-08T03:04:47;95032.47;;;6.93;48.35
16793;BME280;8513;42.662;23.350;2023-04-08T03:07:12;95021.59;;;6.88;48.66
16793;BME280;8513;42.662;23.350;2023-04-08T03:09:38;95024.31;;;6.86;48.40
16793;BME280;8513;42.662;23.350;2023-04-08T03:12:03;95022.41;;;6.88;48.78
16793;BME280;8513;42.662;23.350;2023-04-08T03:14:29;95016.63;;;6.84;48.92
16793;BME280;8513;42.662;23.350;2023-04-08T03:16:54;95021.69;;;6.86;48.60
16793;BME280;8513;42.662;23.350;2023-04-08T03:19:20;95021.00;;;6.84;48.42
16793;BME280;8513;42.662;23.350;2023-04-08T03:21:45;95016.47;;;6.86;48.39
16793;BME280;8513;42.662;23.350;2023-04-08T03:24:10;95019.53;;;6.91;48.16
16793;BME280;8513;42.662;23.350;2023-04-08T03:26:36;95023.94;;;6.70;49.16
16793;BME280;8513;42.662;23.350;2023-04-08T03:29:01;95025.78;;;6.79;48.72
16793;BME280;8513;42.662;23.350;2023-04-08T03:31:27;95023.16;;;6.79;48.60
16793;BME280;8513;42.662;23.350;2023-04-08T03:33:52;95014.22;;;6.81;49.15
16793;BME280;8513;42.662;23.350;2023-04-08T03:36:18;95023.41;;;6.76;49.18
16793;BME280;8513;42.662;23.350;2023-04-08T03:38:43;95031.44;;;6.84;48.83
16793;BME280;8513;42.662;23.350;2023-04-08T03:41:09;95022.47;;;6.77;49.14
16793;BME280;8513;42.662;23.350;2023-04-08T03:43:34;95023.56;;;6.74;49.22
16793;BME280;8513;42.662;23.350;2023-04-08T03:46:00;95023.13;;;6.69;49.20
16793;BME280;8513;42.662;23.350;2023-04-08T03:48:25;95032.13;;;6.76;49.22
16793;BME280;8513;42.662;23.350;2023-04-08T03:50:52;95028.38;;;6.79;49.28
16793;BME280;8513;42.662;23.350;2023-04-08T03:53:17;95029.72;;;6.73;49.23
16793;BME280;8513;42.662;23.350;2023-04-08T03:55:43;95019.97;;;6.75;49.28
16793;BME280;8513;42.662;23.350;2023-04-08T03:58:08;95017.53;;;6.74;49.68
16793;BME280;8513;42.662;23.350;2023-04-08T04:00:34;95017.31;;;6.66;49.67
16793;BME280;8513;42.662;23.350;2023-04-08T04:03:00;95026.09;;;6.65;50.17
16793;BME280;8513;42.662;23.350;2023-04-08T04:05:25;95021.59;;;6.67;50.38
16793;BME280;8513;42.662;23.350;2023-04-08T04:07:50;95023.69;;;6.73;50.80
16793;BME280;8513;42.662;23.350;2023-04-08T04:10:16;95023.69;;;6.73;50.67
16793;BME280;8513;42.662;23.350;2023-04-08T04:12:41;95020.25;;;6.72;51.21
16793;BME280;8513;42.662;23.350;2023-04-08T04:15:09;95013.38;;;6.71;51.09
16793;BME280;8513;42.662;23.350;2023-04-08T04:17:34;95027.81;;;6.75;51.07
16793;BME280;8513;42.662;23.350;2023-04-08T04:20:03;95038.28;;;6.75;51.27
16793;BME280;8513;42.662;23.350;2023-04-08T04:22:28;95026.81;;;6.67;51.26
16793;BME280;8513;42.662;23.350;2023-04-08T04:24:53;95030.69;;;6.72;50.92
16793;BME280;8513;42.662;23.350;2023-04-08T04:27:19;95032.50;;;6.72;50.58
16793;BME280;8513;42.662;23.350;2023-04-08T04:29:44;95030.59;;;6.74;50.21
16793;BME280;8513;42.662;23.350;2023-04-08T04:32:10;95039.34;;;6.73;50.16
16793;BME280;8513;42.662;23.350;2023-04-08T04:34:35;95028.91;;;6.73;50.17
16793;BME280;8513;42.662;23.350;2023-04-08T04:37:01;95031.00;;;6.79;50.01
16793;BME280;8513;42.662;23.350;2023-04-08T04:39:26;95040.59;;;6.69;51.00
16793;BME280;8513;42.662;23.350;2023-04-08T04:41:52;95034.66;;;6.67;50.41
16793;BME280;8513;42.662;23.350;2023-04-08T04:44:17;95029.06;;;6.71;50.06
16793;BME280;8513;42.662;23.350;2023-04-08T04:46:43;95031.06;;;6.68;49.96
16793;BME280;8513;42.662;23.350;2023-04-08T04:49:09;95043.38;;;6.77;50.22
16793;BME280;8513;42.662;23.350;2023-04-08T04:51:35;95028.66;;;6.76;49.94
16793;BME280;8513;42.662;23.350;2023-04-08T04:54:00;95030.59;;;6.74;49.68
16793;BME280;8513;42.662;23.350;2023-04-08T04:56:26;95025.66;;;6.80;50.01
16793;BME280;8513;42.662;23.350;2023-04-08T04:58:52;95040.00;;;6.86;49.60
16793;BME280;8513;42.662;23.350;2023-04-08T05:01:17;95046.19;;;6.85;50.31
16793;BME280;8513;42.662;23.350;2023-04-08T05:03:43;95040.00;;;6.86;50.13
16793;BME280;8513;42.662;23.350;2023-04-08T05:06:08;95040.69;;;6.88;50.00
16793;BME280;8513;42.662;23.350;2023-04-08T05:08:33;95044.69;;;6.92;49.26
16793;BME280;8513;42.662;23.350;2023-04-08T05:10:59;95044.03;;;6.90;49.14
16793;BME280;8513;42.662;23.350;2023-04-08T05:13:29;95036.00;;;6.82;49.36
16793;BME280;8513;42.662;23.350;2023-04-08T05:15:56;95043.88;;;6.92;49.26
16793;BME280;8513;42.662;23.350;2023-04-08T05:18:21;95039.78;;;6.99;49.05
16793;BME280;8513;42.662;23.350;2023-04-08T05:20:47;95041.78;;;7.06;49.02
16793;BME280;8513;42.662;23.350;2023-04-08T05:23:12;95040.53;;;7.11;49.09
16793;BME280;8513;42.662;23.350;2023-04-08T05:25:38;95036.16;;;7.11;48.98
16793;BME280;8513;42.662;23.350;2023-04-08T05:28:03;95044.84;;;7.21;48.62
16793;BME280;8513;42.662;23.350;2023-04-08T05:30:29;95044.28;;;7.18;48.66
16793;BME280;8513;42.662;23.350;2023-04-08T05:32:55;95043.25;;;7.30;48.59
16793;BME280;8513;42.662;23.350;2023-04-08T05:35:20;95045.03;;;7.29;48.35
16793;BME280;8513;42.662;23.350;2023-04-08T05:37:46;95040.94;;;7.37;48.29
16793;BME280;8513;42.662;23.350;2023-04-08T05:40:11;95046.22;;;7.46;48.29
16793;BME280;8513;42.662;23.350;2023-04-08T05:42:36;95046.38;;;7.55;48.15
16793;BME280;8513;42.662;23.350;2023-04-08T05:45:02;95048.28;;;7.53;48.03
16793;BME280;8513;42.662;23.350;2023-04-08T05:47:28;95045.56;;;7.54;48.13
16793;BME280;8513;42.662;23.350;2023-04-08T05:49:53;95042.00;;;7.65;48.06
16793;BME280;8513;42.662;23.350;2023-04-08T05:52:19;95038.44;;;7.66;47.59
16793;BME280;8513;42.662;23.350;2023-04-08T05:54:44;95029.19;;;7.62;47.99
16793;BME280;8513;42.662;23.350;2023-04-08T05:57:10;95037.22;;;7.70;47.87
16793;BME280;8513;42.662;23.350;2023-04-08T05:59:36;95042.00;;;7.65;48.02
16793;BME280;8513;42.662;23.350;2023-04-08T06:02:01;95050.84;;;7.73;47.89
16793;BME280;8513;42.662;23.350;2023-04-08T06:04:27;95038.88;;;7.81;47.77
16793;BME280;8513;42.662;23.350;2023-04-08T06:06:52;95045.91;;;7.80;47.96
16793;BME280;8513;42.662;23.350;2023-04-08T06:09:17;95021.91;;;7.75;48.22
16793;BME280;8513;42.662;23.350;2023-04-08T06:11:43;95036.78;;;7.74;47.97
16793;BME280;8513;42.662;23.350;2023-04-08T06:14:08;95036.03;;;7.53;48.60
16793;BME280;8513;42.662;23.350;2023-04-08T06:16:34;95037.34;;;7.28;49.24
16793;BME280;8513;42.662;23.350;2023-04-08T06:18:59;95040.22;;;7.35;49.45
16793;BME280;8513;42.662;23.350;2023-04-08T06:21:25;95044.47;;;7.66;48.91
16793;BME280;8513;42.662;23.350;2023-04-08T06:23:50;95043.16;;;7.82;48.88
16793;BME280;8513;42.662;23.350;2023-04-08T06:26:16;95039.03;;;7.89;48.75
16793;BME280;8513;42.662;23.350;2023-04-08T06:28:42;95037.44;;;8.07;48.28
16793;BME280;8513;42.662;23.350;2023-04-08T06:31:07;95042.47;;;7.99;48.91
16793;BME280;8513;42.662;23.350;2023-04-08T06:33:33;95037.94;;;8.01;49.07
16793;BME280;8513;42.662;23.350;2023-04-08T06:36:05;95043.50;;;8.08;48.61
16793;BME280;8513;42.662;23.350;2023-04-08T06:38:31;95044.84;;;8.02;49.37
16793;BME280;8513;42.662;23.350;2023-04-08T06:41:06;95045.28;;;8.27;48.82
16793;BME280;8513;42.662;23.350;2023-04-08T06:43:33;95055.25;;;8.43;48.87
16793;BME280;8513;42.662;23.350;2023-04-08T06:45:58;95054.03;;;8.56;48.12
16793;BME280;8513;42.662;23.350;2023-04-08T06:48:24;95051.25;;;8.58;48.37
16793;BME280;8513;42.662;23.350;2023-04-08T06:50:59;95045.19;;;8.57;48.42
16793;BME280;8513;42.662;23.350;2023-04-08T06:53:26;95050.56;;;8.46;48.67
16793;BME280;8513;42.662;23.350;2023-04-08T06:55:53;95055.13;;;8.54;48.57
16793;BME280;8513;42.662;23.350;2023-04-08T06:58:18;95055.41;;;8.51;48.53
16793;BME280;8513;42.662;23.350;2023-04-08T07:00:44;95052.22;;;8.57;48.17
16793;BME280;8513;42.662;23.350;2023-04-08T07:03:09;95050.00;;;8.62;48.75
16793;BME280;8513;42.662;23.350;2023-04-08T07:05:39;95047.13;;;8.55;49.01
16793;BME280;8513;42.662;23.350;2023-04-08T07:08:06;95050.72;;;8.64;49.00
16793;BME280;8513;42.662;23.350;2023-04-08T07:10:31;95044.91;;;8.80;48.51
16793;BME280;8513;42.662;23.350;2023-04-08T07:12:59;95049.84;;;8.93;48.16
16793;BME280;8513;42.662;23.350;2023-04-08T07:15:24;95049.56;;;8.96;48.23
16793;BME280;8513;42.662;23.350;2023-04-08T07:17:50;95050.09;;;9.09;48.00
16793;BME280;8513;42.662;23.350;2023-04-08T07:20:15;95051.19;;;9.07;47.91
16793;BME280;8513;42.662;23.350;2023-04-08T07:22:41;95056.13;;;9.19;47.89
16793;BME280;8513;42.662;23.350;2023-04-08T07:25:06;95057.09;;;9.28;47.86
16793;BME280;8513;42.662;23.350;2023-04-08T07:27:33;95052.88;;;9.45;47.61
16793;BME280;8513;42.662;23.350;2023-04-08T07:29:58;95058.25;;;9.43;47.97
16793;BME280;8513;42.662;23.350;2023-04-08T07:32:23;95056.59;;;9.52;47.82
16793;BME280;8513;42.662;23.350;2023-04-08T07:34:49;95049.09;;;9.57;47.11
16793;BME280;8513;42.662;23.350;2023-04-08T07:37:15;95063.63;;;9.52;47.16
16793;BME280;8513;42.662;23.350;2023-04-08T07:39:41;95065.38;;;9.61;47.12
16793;BME280;8513;42.662;23.350;2023-04-08T07:42:07;95047.50;;;9.74;47.34
16793;BME280;8513;42.662;23.350;2023-04-08T07:44:32;95068.69;;;9.90;46.93
16793;BME280;8513;42.662;23.350;2023-04-08T07:46:58;95072.50;;;10.06;46.69
16793;BME280;8513;42.662;23.350;2023-04-08T07:49:23;95073.31;;;10.06;46.50
16793;BME280;8513;42.662;23.350;2023-04-08T07:51:49;95069.69;;;10.07;46.17
16793;BME280;8513;42.662;23.350;2023-04-08T07:54:14;95073.84;;;10.10;46.20
16793;BME280;8513;42.662;23.350;2023-04-08T07:56:42;95071.03;;;10.21;45.79
16793;BME280;8513;42.662;23.350;2023-04-08T07:59:09;95071.16;;;10.29;45.66
16793;BME280;8513;42.662;23.350;2023-04-08T08:01:34;95076.25;;;10.49;45.41
16793;BME280;8513;42.662;23.350;2023-04-08T08:04:00;95084.94;;;10.31;46.18
16793;BME280;8513;42.662;23.350;2023-04-08T08:06:26;95075.06;;;10.43;45.76
16793;BME280;8513;42.662;23.350;2023-04-08T08:08:52;95088.19;;;10.15;46.54
16793;BME280;8513;42.662;23.350;2023-04-08T08:11:17;95088.19;;;10.15;47.12
16793;BME280;8513;42.662;23.350;2023-04-08T08:13:43;95082.84;;;10.35;46.54
16793;BME280;8513;42.662;23.350;2023-04-08T08:16:08;95088.88;;;10.63;45.75
16793;BME280;8513;42.662;23.350;2023-04-08T08:18:36;95078.81;;;10.58;45.97
16793;BME280;8513;42.662;23.350;2023-04-08T08:21:02;95082.66;;;10.64;46.10
16793;BME280;8513;42.662;23.350;2023-04-08T08:23:28;95081.97;;;10.80;45.25
16793;BME280;8513;42.662;23.350;2023-04-08T08:26:00;95080.41;;;10.69;45.33
16793;BME280;8513;42.662;23.350;2023-04-08T08:28:26;95084.97;;;10.67;45.58
16793;BME280;8513;42.662;23.350;2023-04-08T08:30:52;95084.44;;;10.64;46.00
16793;BME280;8513;42.662;23.350;2023-04-08T08:33:18;95084.28;;;10.83;45.24
16793;BME280;8513;42.662;23.350;2023-04-08T08:35:43;95082.25;;;10.77;45.82
16793;BME280;8513;42.662;23.350;2023-04-08T08:38:08;95087.31;;;10.70;45.56
16793;BME280;8513;42.662;23.350;2023-04-08T08:40:34;95089.19;;;10.78;45.86
16793;BME280;8513;42.662;23.350;2023-04-08T08:42:59;95087.38;;;10.96;45.05
16793;BME280;8513;42.662;23.350;2023-04-08T08:45:25;95089.19;;;10.78;45.98
16793;BME280;8513;42.662;23.350;2023-04-08T08:47:51;95093.44;;;10.79;45.77
16793;BME280;8513;42.662;23.350;2023-04-08T08:50:17;95095.84;;;10.90;45.47
16793;BME280;8513;42.662;23.350;2023-04-08T08:52:50;95087.56;;;10.85;45.93
16793;BME280;8513;42.662;23.350;2023-04-08T08:55:20;95092.09;;;10.93;45.69
16793;BME280;8513;42.662;23.350;2023-04-08T08:57:46;95090.50;;;11.00;45.32
16793;BME280;8513;42.662;23.350;2023-04-08T09:00:15;95096.53;;;10.92;44.91
16793;BME280;8513;42.662;23.350;2023-04-08T09:02:40;95102.16;;;10.79;45.77
16793;BME280;8513;42.662;23.350;2023-04-08T09:05:06;95101.47;;;10.95;45.52
16793;BME280;8513;42.662;23.350;2023-04-08T09:07:35;95102.59;;;10.93;46.21
16793;BME280;8513;42.662;23.350;2023-04-08T09:10:01;95100.97;;;11.10;45.22
16793;BME280;8513;42.662;23.350;2023-04-08T09:12:27;95101.47;;;10.95;45.65
16793;BME280;8513;42.662;23.350;2023-04-08T09:17:39;95104.53;;;11.53;44.66
16793;BME280;8513;42.662;23.350;2023-04-08T09:22:49;95087.84;;;11.70;44.22
16793;BME280;8513;42.662;23.350;2023-04-08T09:25:29;95080.94;;;11.69;44.38
16793;BME280;8513;42.662;23.350;2023-04-08T09:27:56;95087.56;;;11.81;43.86
16793;BME280;8513;42.662;23.350;2023-04-08T09:30:23;95086.72;;;11.81;42.50
16793;BME280;8513;42.662;23.350;2023-04-08T09:32:56;95084.75;;;11.75;43.00
16793;BME280;8513;42.662;23.350;2023-04-08T09:35:22;95086.22;;;11.77;43.37
16793;BME280;8513;42.662;23.350;2023-04-08T09:37:49;95075.97;;;11.40;43.45
16793;BME280;8513;42.662;23.350;2023-04-08T09:40:15;95077.81;;;11.39;45.37
16793;BME280;8513;42.662;23.350;2023-04-08T09:42:44;95077.53;;;11.51;44.72
16793;BME280;8513;42.662;23.350;2023-04-08T09:45:11;95072.16;;;11.95;43.79
16793;BME280;8513;42.662;23.350;2023-04-08T09:47:55;95070.00;;;12.32;43.45
16793;BME280;8513;42.662;23.350;2023-04-08T09:50:26;95078.81;;;12.74;42.26
16793;BME280;8513;42.662;23.350;2023-04-08T09:52:59;95065.59;;;12.98;41.50
16793;BME280;8513;42.662;23.350;2023-04-08T09:55:26;95064.47;;;13.01;41.32
16793;BME280;8513;42.662;23.350;2023-04-08T09:58:02;95068.41;;;13.13;40.02
16793;BME280;8513;42.662;23.350;2023-04-08T10:00:31;95059.84;;;13.36;40.16
16793;BME280;8513;42.662;23.350;2023-04-08T10:05:51;95043.13;;;13.52;39.31
16793;BME280;8513;42.662;23.350;2023-04-08T10:08:18;95054.72;;;13.42;39.59
16793;BME280;8513;42.662;23.350;2023-04-08T10:10:44;95054.19;;;13.47;39.14
16793;BME280;8513;42.662;23.350;2023-04-08T10:13:10;95051.25;;;13.17;39.84
16793;BME280;8513;42.662;23.350;2023-04-08T10:15:36;95064.78;;;13.31;39.33
16793;BME280;8513;42.662;23.350;2023-04-08T10:23:02;95049.59;;;13.24;39.75
16793;BME280;8513;42.662;23.350;2023-04-08T10:27:57;95043.84;;;13.05;40.14
16793;BME280;8513;42.662;23.350;2023-04-08T10:32:55;95050.09;;;12.71;40.72
16793;BME280;8513;42.662;23.350;2023-04-08T10:35:28;95040.03;;;12.50;40.92
16793;BME280;8513;42.662;23.350;2023-04-08T10:37:54;95042.41;;;12.10;42.15
16793;BME280;8513;42.662;23.350;2023-04-08T10:40:20;95034.88;;;12.32;42.49
16793;BME280;8513;42.662;23.350;2023-04-08T10:42:45;95033.09;;;12.41;42.19
16793;BME280;8513;42.662;23.350;2023-04-08T10:45:15;95037.41;;;12.74;42.13
16793;BME280;8513;42.662;23.350;2023-04-08T10:47:42;95032.13;;;12.99;40.84
16793;BME280;8513;42.662;23.350;2023-04-08T10:50:18;95031.25;;;13.23;39.33
16793;BME280;8513;42.662;23.350;2023-04-08T10:52:48;95015.75;;;13.44;38.79
16793;BME280;8513;42.662;23.350;2023-04-08T10:55:14;95014.09;;;13.43;39.02
16793;BME280;8513;42.662;23.350;2023-04-08T10:57:41;95018.78;;;13.73;38.29
16793;BME280;8513;42.662;23.350;2023-04-08T11:00:16;95010.09;;;14.03;37.96
16793;BME280;8513;42.662;23.350;2023-04-08T11:02:42;95018.94;;;14.10;37.86
16793;BME280;8513;42.662;23.350;2023-04-08T11:05:09;95009.06;;;14.04;38.15
16793;BME280;8513;42.662;23.350;2023-04-08T11:07:43;95007.81;;;13.92;38.30
16793;BME280;8513;42.662;23.350;2023-04-08T11:10:09;95003.59;;;13.75;37.87
16793;BME280;8513;42.662;23.350;2023-04-08T11:12:36;95007.22;;;13.74;38.04
16793;BME280;8513;42.662;23.350;2023-04-08T11:15:03;95001.94;;;13.74;38.25
16793;BME280;8513;42.662;23.350;2023-04-08T11:17:30;95005.91;;;13.78;38.09
16793;BME280;8513;42.662;23.350;2023-04-08T11:19:56;95004.22;;;13.85;37.18
16793;BME280;8513;42.662;23.350;2023-04-08T11:22:27;95006.38;;;13.81;37.03
16793;BME280;8513;42.662;23.350;2023-04-08T11:24:54;94986.00;;;13.98;36.38
16793;BME280;8513;42.662;23.350;2023-04-08T11:27:20;94988.84;;;13.88;36.39
16793;BME280;8513;42.662;23.350;2023-04-08T11:29:50;94979.31;;;13.79;36.74
16793;BME280;8513;42.662;23.350;2023-04-08T11:32:15;94981.91;;;13.87;37.38
16793;BME280;8513;42.662;23.350;2023-04-08T11:34:41;94992.09;;;14.22;36.54
16793;BME280;8513;42.662;23.350;2023-04-08T11:37:07;94989.09;;;14.33;35.89
16793;BME280;8513;42.662;23.350;2023-04-08T11:39:32;94983.00;;;14.55;35.49
16793;BME280;8513;42.662;23.350;2023-04-08T11:41:58;94978.81;;;14.84;34.97
16793;BME280;8513;42.662;23.350;2023-04-08T11:44:30;94972.72;;;14.98;34.36
16793;BME280;8513;42.662;23.350;2023-04-08T11:46:57;94972.53;;;15.15;33.74
16793;BME280;8513;42.662;23.350;2023-04-08T11:49:23;94968.00;;;15.38;33.57
16793;BME280;8513;42.662;23.350;2023-04-08T11:51:58;94960.41;;;15.35;32.62
16793;BME280;8513;42.662;23.350;2023-04-08T11:54:28;94969.81;;;15.23;32.46
16793;BME280;8513;42.662;23.350;2023-04-08T11:56:54;94967.41;;;14.98;33.19
16793;BME280;8513;42.662;23.350;2023-04-08T11:59:20;94959.16;;;14.78;33.64
16793;BME280;8513;42.662;23.350;2023-04-08T12:01:45;94966.75;;;14.82;34.38
16793;BME280;8513;42.662;23.350;2023-04-08T12:04:11;94952.44;;;15.06;33.90
16793;BME280;8513;42.662;23.350;2023-04-08T12:06:36;94952.91;;;15.39;33.77
16793;BME280;8513;42.662;23.350;2023-04-08T12:09:02;94954.75;;;15.53;33.66
16793;BME280;8513;42.662;23.350;2023-04-08T12:11:27;94943.78;;;15.56;34.14
16793;BME280;8513;42.662;23.350;2023-04-08T12:13:53;94943.88;;;15.48;33.64
16793;BME280;8513;42.662;23.350;2023-04-08T12:16:19;94944.88;;;15.62;33.50
16793;BME280;8513;42.662;23.350;2023-04-08T12:18:45;94951.03;;;15.77;32.92
16793;BME280;8513;42.662;23.350;2023-04-08T12:21:11;94947.47;;;15.70;33.30
16793;BME280;8513;42.662;23.350;2023-04-08T12:23:36;94942.13;;;15.85;32.83
16793;BME280;8513;42.662;23.350;2023-04-08T12:26:02;94943.66;;;15.94;32.18
16793;BME280;8513;42.662;23.350;2023-04-08T12:28:28;94941.72;;;16.03;31.90
16793;BME280;8513;42.662;23.350;2023-04-08T12:30:54;94934.84;;;15.28;32.35
16793;BME280;8513;42.662;23.350;2023-04-08T12:33:19;94933.28;;;15.18;32.76
16793;BME280;8513;42.662;23.350;2023-04-08T12:35:45;94934.00;;;14.97;33.57
16793;BME280;8513;42.662;23.350;2023-04-08T12:38:10;94941.66;;;14.92;33.43
16793;BME280;8513;42.662;23.350;2023-04-08T12:40:35;94928.59;;;14.53;34.14
16793;BME280;8513;42.662;23.350;2023-04-08T12:43:01;94929.72;;;14.36;34.26
16793;BME280;8513;42.662;23.350;2023-04-08T12:45:27;94932.94;;;14.23;34.96
16793;BME280;8513;42.662;23.350;2023-04-08T12:47:52;94926.97;;;13.98;35.57
16793;BME280;8513;42.662;23.350;2023-04-08T12:50:17;94930.13;;;14.01;35.84
16793;BME280;8513;42.662;23.350;2023-04-08T12:52:43;94930.28;;;14.00;36.12
16793;BME280;8513;42.662;23.350;2023-04-08T12:55:09;94934.69;;;14.07;36.43
16793;BME280;8513;42.662;23.350;2023-04-08T12:57:34;94932.63;;;13.95;36.89
16793;BME280;8513;42.662;23.350;2023-04-08T13:00:00;94930.28;;;14.00;37.06
16793;BME280;8513;42.662;23.350;2023-04-08T13:02:25;94927.53;;;13.93;36.70
16793;BME280;8513;42.662;23.350;2023-04-08T13:04:51;94923.91;;;13.86;37.73
16793;BME280;8513;42.662;23.350;2023-04-08T13:07:18;94919.69;;;13.77;37.69
16793;BME280;8513;42.662;23.350;2023-04-08T13:09:43;94928.19;;;13.64;37.14
16793;BME280;8513;42.662;23.350;2023-04-08T13:12:08;94935.91;;;13.65;37.22
16793;BME280;8513;42.662;23.350;2023-04-08T13:14:36;94929.88;;;13.49;37.62
16793;BME280;8513;42.662;23.350;2023-04-08T13:17:02;94938.13;;;13.54;37.47
16793;BME280;8513;42.662;23.350;2023-04-08T13:19:28;94935.47;;;13.54;37.47
16793;BME280;8513;42.662;23.350;2023-04-08T13:21:53;94929.84;;;13.57;37.65
16793;BME280;8513;42.662;23.350;2023-04-08T13:24:18;94930.97;;;13.62;37.77
16793;BME280;8513;42.662;23.350;2023-04-08T13:26:44;94934.06;;;13.74;41.25
16793;BME280;8513;42.662;23.350;2023-04-08T13:29:09;94934.41;;;13.71;42.60
16793;BME280;8513;42.662;23.350;2023-04-08T13:31:35;94941.91;;;13.90;43.94
16793;BME280;8513;42.662;23.350;2023-04-08T13:34:00;94935.47;;;13.93;43.36